createdAt,value
2018-07-14T00:00:59.638Z,0.00
2018-07-14T00:01:59.637Z,0.00
2018-07-14T00:02:59.634Z,0.00
2018-07-14T00:03:59.642Z,0.00
2018-07-14T00:04:59.660Z,0.00
2018-07-14T00:05:59.641Z,0.00
2018-07-14T00:06:59.650Z,0.00
2018-07-14T00:07:59.664Z,0.00
2018-07-14T00:08:59.669Z,0.00
2018-07-14T00:09:59.671Z,0.00
2018-07-14T00:10:59.667Z,0.00
2018-07-14T00:11:59.677Z,0.00
2018-07-14T00:12:59.672Z,0.00
2018-07-14T00:13:59.676Z,0.00
2018-07-14T00:14:59.674Z,0.00
2018-07-14T00:15:59.705Z,0.00
2018-07-14T00:16:59.688Z,0.00
2018-07-14T00:19:59.696Z,0.00
2018-07-14T00:20:59.711Z,0.00
2018-07-14T00:22:00.800Z,0.00
2018-07-14T00:22:59.794Z,0.00
2018-07-14T00:23:59.720Z,0.00
2018-07-14T00:24:59.715Z,0.00
2018-07-14T00:25:59.705Z,0.00
2018-07-14T00:26:59.710Z,0.00
2018-07-14T00:27:59.711Z,0.00
2018-07-14T00:28:59.730Z,0.00
2018-07-14T00:29:59.734Z,0.00
2018-07-14T00:30:59.717Z,0.00
2018-07-14T00:31:59.722Z,0.00
2018-07-14T00:32:59.735Z,0.00
2018-07-14T00:33:59.741Z,0.00
2018-07-14T00:34:59.728Z,0.00
2018-07-14T00:35:59.758Z,0.00
2018-07-14T00:36:59.738Z,0.00
2018-07-14T00:37:59.774Z,0.00
2018-07-14T00:38:59.763Z,0.00
2018-07-14T00:39:59.758Z,0.00
2018-07-14T00:40:59.745Z,0.00
2018-07-14T00:41:59.755Z,0.00
2018-07-14T00:42:59.745Z,0.00
2018-07-14T00:43:59.765Z,0.00
2018-07-14T00:44:59.776Z,0.00
2018-07-14T00:45:59.776Z,0.00
2018-07-14T00:46:59.788Z,0.00
2018-07-14T00:47:59.765Z,0.00
2018-07-14T00:48:59.769Z,0.00
2018-07-14T00:49:59.786Z,0.00
2018-07-14T00:50:59.778Z,0.00
2018-07-14T00:51:59.787Z,0.00
2018-07-14T00:52:59.784Z,0.00
2018-07-14T00:53:59.782Z,0.00
2018-07-14T00:54:59.782Z,0.00
2018-07-14T00:55:59.787Z,0.00
2018-07-14T00:56:59.802Z,0.00
2018-07-14T00:57:59.791Z,0.00
2018-07-14T00:58:59.802Z,0.00
2018-07-14T00:59:59.805Z,0.00
2018-07-14T01:00:59.807Z,0.00
2018-07-14T01:01:59.843Z,0.00
2018-07-14T01:02:59.805Z,0.00
2018-07-14T01:03:59.827Z,0.00
2018-07-14T01:04:59.829Z,0.00
2018-07-14T01:05:59.843Z,0.00
2018-07-14T01:06:59.829Z,0.00
2018-07-14T01:07:59.824Z,0.00
2018-07-14T01:08:59.839Z,0.00
2018-07-14T01:09:59.832Z,0.00
2018-07-14T01:10:59.827Z,0.00
2018-07-14T01:11:59.837Z,0.00
2018-07-14T01:12:59.843Z,0.00
2018-07-14T01:14:00.310Z,0.00
2018-07-14T01:14:59.852Z,0.00
2018-07-14T01:15:59.877Z,0.00
2018-07-14T01:16:59.854Z,0.00
2018-07-14T01:17:59.850Z,0.00
2018-07-14T01:18:59.865Z,0.00
2018-07-14T01:19:59.859Z,0.00
2018-07-14T01:20:59.866Z,0.00
2018-07-14T01:21:59.867Z,0.00
2018-07-14T01:22:59.882Z,0.00
2018-07-14T01:23:59.869Z,0.00
2018-07-14T01:24:59.874Z,0.00
2018-07-14T01:25:59.879Z,0.00
2018-07-14T01:27:00.815Z,0.00
2018-07-14T01:27:59.884Z,0.00
2018-07-14T01:28:59.893Z,0.00
2018-07-14T01:29:59.900Z,0.00
2018-07-14T01:30:59.890Z,0.00
2018-07-14T01:31:59.896Z,0.00
2018-07-14T01:32:59.933Z,0.00
2018-07-14T01:33:59.895Z,0.00
2018-07-14T01:34:59.917Z,0.00
2018-07-14T01:35:59.909Z,0.00
2018-07-14T01:36:59.906Z,0.00
2018-07-14T01:37:59.927Z,0.00
2018-07-14T01:38:59.922Z,0.00
2018-07-14T01:39:59.933Z,0.00
2018-07-14T01:40:59.914Z,0.00
2018-07-14T01:41:59.920Z,0.00
2018-07-14T01:42:59.925Z,0.00
2018-07-14T01:43:59.925Z,0.00
2018-07-14T01:44:59.928Z,0.00
2018-07-14T01:45:59.918Z,0.00
2018-07-14T01:46:59.965Z,0.00
2018-07-14T01:47:59.946Z,0.00
2018-07-14T01:48:59.938Z,0.00
2018-07-14T01:49:59.948Z,0.00
2018-07-14T01:50:59.939Z,0.00
2018-07-14T01:51:59.947Z,0.00
2018-07-14T01:52:59.955Z,0.00
2018-07-14T01:53:59.952Z,0.00
2018-07-14T01:54:59.955Z,0.00
2018-07-14T01:56:00.828Z,0.00
2018-07-14T01:56:59.962Z,0.00
2018-07-14T01:57:59.967Z,0.00
2018-07-14T01:58:59.964Z,0.00
2018-07-14T01:59:59.966Z,0.00
2018-07-14T02:00:59.973Z,0.00
2018-07-14T02:01:59.996Z,0.00
2018-07-14T02:02:59.971Z,0.00
2018-07-14T02:03:59.983Z,0.00
2018-07-14T02:04:59.983Z,0.00
2018-07-14T02:05:59.973Z,0.00
2018-07-14T02:06:59.980Z,0.00
2018-07-14T02:08:00.058Z,0.00
2018-07-14T02:09:00.045Z,0.00
2018-07-14T02:09:59.994Z,0.00
2018-07-14T02:11:00.037Z,0.00
2018-07-14T02:12:00.006Z,0.00
2018-07-14T02:13:00.008Z,0.00
2018-07-14T02:14:00.025Z,0.00
2018-07-14T02:15:00.027Z,0.00
2018-07-14T02:16:00.018Z,0.00
2018-07-14T02:17:00.020Z,0.00
2018-07-14T02:18:00.835Z,0.00
2018-07-14T02:19:00.035Z,0.00
2018-07-14T02:20:00.024Z,0.00
2018-07-14T02:21:00.031Z,0.00
2018-07-14T02:22:00.027Z,0.00
2018-07-14T02:23:00.033Z,0.00
2018-07-14T02:24:00.033Z,0.00
2018-07-14T02:25:00.048Z,0.00
2018-07-14T02:26:00.042Z,0.00
2018-07-14T02:27:00.067Z,0.00
2018-07-14T02:28:00.042Z,0.00
2018-07-14T02:29:00.036Z,0.00
2018-07-14T02:30:00.065Z,0.00
2018-07-14T02:31:00.842Z,0.00
2018-07-14T02:32:00.057Z,0.00
2018-07-14T02:33:00.061Z,0.00
2018-07-14T02:34:00.076Z,0.00
2018-07-14T02:35:00.080Z,0.00
2018-07-14T02:36:00.080Z,0.00
2018-07-14T02:37:00.070Z,0.00
2018-07-14T02:38:00.074Z,0.00
2018-07-14T02:39:00.070Z,0.00
2018-07-14T02:40:00.085Z,0.00
2018-07-14T02:41:00.078Z,0.00
2018-07-14T02:42:00.084Z,0.00
2018-07-14T02:43:00.077Z,0.00
2018-07-14T02:44:00.101Z,0.00
2018-07-14T02:45:00.089Z,0.00
2018-07-14T02:46:00.084Z,0.00
2018-07-14T02:47:00.097Z,0.00
2018-07-14T02:48:00.122Z,0.00
2018-07-14T02:49:00.096Z,4.00
2018-07-14T02:50:00.111Z,4.00
2018-07-14T02:51:00.115Z,4.00
2018-07-14T02:52:00.115Z,4.00
2018-07-14T02:53:00.113Z,4.00
2018-07-14T02:54:00.114Z,4.00
2018-07-14T02:55:00.119Z,4.00
2018-07-14T02:56:00.129Z,8.00
2018-07-14T02:57:00.116Z,4.00
2018-07-14T02:58:00.148Z,8.00
2018-07-14T02:59:00.127Z,8.00
2018-07-14T03:00:00.127Z,8.00
2018-07-14T03:01:00.127Z,8.00
2018-07-14T03:02:00.143Z,8.00
2018-07-14T03:03:00.142Z,12.00
2018-07-14T03:04:00.141Z,16.00
2018-07-14T03:05:00.184Z,16.00
2018-07-14T03:06:00.147Z,20.00
2018-07-14T03:07:00.153Z,20.00
2018-07-14T03:08:00.157Z,20.00
2018-07-14T03:09:00.165Z,24.00
2018-07-14T03:10:00.163Z,28.00
2018-07-14T03:11:00.178Z,28.00
2018-07-14T03:12:00.226Z,32.00
2018-07-14T03:13:00.309Z,36.00
2018-07-14T03:14:00.172Z,44.00
2018-07-14T03:15:00.182Z,44.00
2018-07-14T03:16:00.176Z,52.00
2018-07-14T03:17:00.170Z,52.00
2018-07-14T03:18:00.179Z,60.00
2018-07-14T03:19:00.173Z,64.00
2018-07-14T03:20:00.184Z,72.00
2018-07-14T03:21:00.186Z,72.00
2018-07-14T03:22:00.212Z,80.00
2018-07-14T03:23:00.182Z,88.00
2018-07-14T03:24:00.201Z,88.00
2018-07-14T03:25:00.196Z,96.00
2018-07-14T03:26:00.192Z,100.00
2018-07-14T03:27:00.202Z,104.00
2018-07-14T03:28:00.217Z,112.00
2018-07-14T03:29:00.203Z,124.00
2018-07-14T03:30:00.207Z,132.00
2018-07-14T03:31:00.210Z,140.00
2018-07-14T03:32:00.208Z,148.00
2018-07-14T03:33:00.213Z,160.00
2018-07-14T03:34:00.219Z,172.00
2018-07-14T03:35:00.215Z,188.00
2018-07-14T03:36:00.223Z,204.00
2018-07-14T03:37:00.224Z,216.00
2018-07-14T03:38:00.220Z,228.00
2018-07-14T03:39:00.229Z,244.00
2018-07-14T03:40:00.246Z,260.00
2018-07-14T03:41:00.235Z,276.00
2018-07-14T03:42:00.317Z,300.00
2018-07-14T03:43:00.285Z,324.00
2018-07-14T03:44:00.259Z,348.00
2018-07-14T03:45:00.264Z,368.00
2018-07-14T03:46:00.244Z,356.00
2018-07-14T03:47:00.256Z,340.00
2018-07-14T03:48:00.259Z,328.00
2018-07-14T03:49:00.261Z,316.00
2018-07-14T03:50:00.252Z,324.00
2018-07-14T03:51:00.272Z,332.00
2018-07-14T03:52:00.284Z,340.00
2018-07-14T03:53:00.868Z,364.00
2018-07-14T03:54:00.274Z,376.00
2018-07-14T03:55:00.284Z,392.00
2018-07-14T03:56:00.273Z,384.00
2018-07-14T03:57:00.366Z,384.00
2018-07-14T03:58:00.276Z,384.00
2018-07-14T03:59:00.291Z,396.00
2018-07-14T04:00:00.288Z,412.00
2018-07-14T04:01:00.289Z,428.00
2018-07-14T04:02:00.287Z,468.00
2018-07-14T04:03:00.287Z,512.00
2018-07-14T04:04:00.291Z,556.00
2018-07-14T04:05:00.311Z,560.00
2018-07-14T04:06:00.304Z,584.00
2018-07-14T04:07:00.294Z,608.00
2018-07-14T04:08:00.301Z,652.00
2018-07-14T04:09:00.306Z,716.00
2018-07-14T04:10:00.323Z,792.00
2018-07-14T04:11:00.320Z,836.00
2018-07-14T04:12:00.316Z,868.00
2018-07-14T04:13:00.317Z,904.00
2018-07-14T04:14:00.326Z,956.00
2018-07-14T04:15:00.323Z,964.00
2018-07-14T04:16:00.324Z,1016.00
2018-07-14T04:17:00.330Z,1092.00
2018-07-14T04:18:00.326Z,1160.00
2018-07-14T04:19:00.372Z,1256.00
2018-07-14T04:20:00.329Z,1348.00
2018-07-14T04:21:00.352Z,1392.00
2018-07-14T04:22:00.339Z,1384.00
2018-07-14T04:23:00.355Z,1372.00
2018-07-14T04:24:00.344Z,1372.00
2018-07-14T04:25:00.349Z,1348.00
2018-07-14T04:26:00.354Z,1384.00
2018-07-14T04:27:00.352Z,1484.00
2018-07-14T04:28:00.362Z,1496.00
2018-07-14T04:29:00.367Z,1584.00
2018-07-14T04:30:00.358Z,1596.00
2018-07-14T04:31:00.371Z,1560.00
2018-07-14T04:32:00.409Z,1520.00
2018-07-14T04:33:00.399Z,1452.00
2018-07-14T04:34:00.391Z,1400.00
2018-07-14T04:35:00.367Z,1416.00
2018-07-14T04:36:00.374Z,1528.00
2018-07-14T04:37:00.381Z,1628.00
2018-07-14T04:38:00.384Z,1652.00
2018-07-14T04:39:00.403Z,1760.00
2018-07-14T04:40:00.393Z,1812.00
2018-07-14T04:41:00.403Z,1904.00
2018-07-14T04:42:00.397Z,1872.00
2018-07-14T04:43:00.391Z,1904.00
2018-07-14T04:44:00.394Z,1876.00
2018-07-14T04:45:00.394Z,1928.00
2018-07-14T04:46:00.409Z,1972.00
2018-07-14T04:47:00.409Z,2068.00
2018-07-14T04:48:00.428Z,2180.00
2018-07-14T04:49:00.410Z,2348.00
2018-07-14T04:50:00.415Z,2520.00
2018-07-14T04:51:00.423Z,2648.00
2018-07-14T04:52:00.425Z,2792.00
2018-07-14T04:53:00.471Z,3036.00
2018-07-14T04:54:00.431Z,3048.00
2018-07-14T04:55:00.431Z,2964.00
2018-07-14T04:56:00.425Z,2928.00
2018-07-14T04:57:00.433Z,2908.00
2018-07-14T04:58:00.462Z,2848.00
2018-07-14T04:59:00.437Z,2864.00
2018-07-14T05:00:00.449Z,2912.00
2018-07-14T05:01:00.454Z,2936.00
2018-07-14T05:02:00.450Z,2976.00
2018-07-14T05:03:00.465Z,3044.00
2018-07-14T05:04:00.447Z,3152.00
2018-07-14T05:05:00.458Z,3240.00
2018-07-14T05:06:00.480Z,3324.00
2018-07-14T05:07:00.462Z,3420.00
2018-07-14T05:08:00.461Z,3524.00
2018-07-14T05:09:00.460Z,3596.00
2018-07-14T05:10:01.396Z,3648.00
2018-07-14T05:11:00.471Z,3708.00
2018-07-14T05:12:00.476Z,3736.00
2018-07-14T05:13:00.474Z,3792.00
2018-07-14T05:14:00.486Z,3868.00
2018-07-14T05:15:00.483Z,3968.00
2018-07-14T05:16:00.489Z,4052.00
2018-07-14T05:17:00.481Z,4116.00
2018-07-14T05:18:00.509Z,4212.00
2018-07-14T05:19:00.498Z,4340.00
2018-07-14T05:20:00.493Z,4708.00
2018-07-14T05:21:00.502Z,5156.00
2018-07-14T05:22:00.490Z,5636.00
2018-07-14T05:23:00.512Z,5976.00
2018-07-14T05:24:00.512Z,6064.00
2018-07-14T05:25:00.531Z,6096.00
2018-07-14T05:26:00.508Z,6188.00
2018-07-14T05:27:00.508Z,6300.00
2018-07-14T05:28:00.617Z,6232.00
2018-07-14T05:29:00.527Z,5900.00
2018-07-14T05:30:00.522Z,5692.00
2018-07-14T05:31:00.530Z,6000.00
2018-07-14T05:32:00.530Z,6512.00
2018-07-14T05:33:00.556Z,6712.00
2018-07-14T05:34:00.545Z,6876.00
2018-07-14T05:35:00.535Z,6816.00
2018-07-14T05:36:00.567Z,6684.00
2018-07-14T05:37:00.539Z,6684.00
2018-07-14T05:38:00.540Z,7160.00
2018-07-14T05:39:00.554Z,7292.00
2018-07-14T05:40:00.552Z,7580.00
2018-07-14T05:41:00.555Z,7712.00
2018-07-14T05:42:00.576Z,7800.00
2018-07-14T05:43:00.569Z,7948.00
2018-07-14T05:44:00.614Z,8048.00
2018-07-14T05:45:00.566Z,8336.00
2018-07-14T05:46:00.572Z,8264.00
2018-07-14T05:47:00.575Z,7780.00
2018-07-14T05:48:00.582Z,8340.00
2018-07-14T05:49:00.582Z,8524.00
2018-07-14T05:50:00.598Z,8732.00
2018-07-14T05:51:00.592Z,8692.00
2018-07-14T05:52:00.651Z,8228.00
2018-07-14T05:53:00.601Z,8688.00
2018-07-14T05:54:00.607Z,7312.00
2018-07-14T05:55:00.623Z,7500.00
2018-07-14T05:56:00.620Z,9204.00
2018-07-14T05:57:00.623Z,9148.00
2018-07-14T05:58:00.638Z,8652.00
2018-07-14T05:59:00.640Z,9148.00
2018-07-14T06:00:00.646Z,7360.00
2018-07-14T06:01:00.639Z,8860.00
2018-07-14T06:02:00.651Z,9456.00
2018-07-14T06:03:00.647Z,9716.00
2018-07-14T06:04:00.697Z,10212.00
2018-07-14T06:05:00.674Z,10260.00
2018-07-14T06:06:00.675Z,9940.00
2018-07-14T06:07:00.671Z,10332.00
2018-07-14T06:08:00.674Z,10548.00
2018-07-14T06:09:00.682Z,10248.00
2018-07-14T06:10:00.694Z,10612.00
2018-07-14T06:11:00.693Z,9456.00
2018-07-14T06:12:00.734Z,9856.00
2018-07-14T06:13:00.737Z,9660.00
2018-07-14T06:14:00.723Z,9016.00
2018-07-14T06:15:00.721Z,9516.00
2018-07-14T06:16:00.733Z,8972.00
2018-07-14T06:17:00.738Z,9160.00
2018-07-14T06:18:00.765Z,9992.00
2018-07-14T06:19:00.752Z,10800.00
2018-07-14T06:20:00.768Z,11272.00
2018-07-14T06:21:00.765Z,11828.00
2018-07-14T06:22:00.762Z,12044.00
2018-07-14T06:23:00.773Z,12296.00
2018-07-14T06:24:00.780Z,12584.00
2018-07-14T06:25:00.784Z,12712.00
2018-07-14T06:26:00.789Z,12788.00
2018-07-14T06:27:00.795Z,13416.00
2018-07-14T06:28:00.816Z,13200.00
2018-07-14T06:29:00.833Z,13052.00
2018-07-14T06:30:00.817Z,12936.00
2018-07-14T06:31:00.817Z,13276.00
2018-07-14T06:32:00.920Z,13324.00
2018-07-14T06:33:00.855Z,13368.00
2018-07-14T06:34:00.854Z,13372.00
2018-07-14T06:35:00.853Z,13384.00
2018-07-14T06:36:00.862Z,13832.00
2018-07-14T06:37:00.880Z,13760.00
2018-07-14T06:38:00.879Z,13824.00
2018-07-14T06:39:00.891Z,14000.00
2018-07-14T06:40:00.891Z,13920.00
2018-07-14T06:41:00.916Z,14004.00
2018-07-14T06:42:00.902Z,14156.00
2018-07-14T06:43:00.959Z,14076.00
2018-07-14T06:44:00.919Z,14224.00
2018-07-14T06:45:00.934Z,14428.00
2018-07-14T06:46:00.954Z,14788.00
2018-07-14T06:47:00.961Z,14808.00
2018-07-14T06:48:00.957Z,15012.00
2018-07-14T06:49:01.436Z,15176.00
2018-07-14T06:50:00.977Z,15372.00
2018-07-14T06:51:00.984Z,15472.00
2018-07-14T06:52:01.007Z,15700.00
2018-07-14T06:53:01.002Z,15904.00
2018-07-14T06:54:01.009Z,16120.00
2018-07-14T06:55:01.020Z,16356.00
2018-07-14T06:56:01.029Z,16604.00
2018-07-14T06:57:01.036Z,16664.00
2018-07-14T06:58:01.047Z,16744.00
2018-07-14T06:59:01.098Z,17120.00
2018-07-14T07:00:01.073Z,16992.00
2018-07-14T07:01:01.082Z,17152.00
2018-07-14T07:02:01.093Z,17344.00
2018-07-14T07:03:01.113Z,17728.00
2018-07-14T07:04:01.107Z,17920.00
2018-07-14T07:05:01.142Z,18080.00
2018-07-14T07:06:01.130Z,18432.00
2018-07-14T07:07:01.147Z,18592.00
2018-07-14T07:08:01.168Z,18720.00
2018-07-14T07:09:01.160Z,18976.00
2018-07-14T07:10:01.203Z,19328.00
2018-07-14T07:11:01.182Z,19264.00
2018-07-14T07:12:01.232Z,20032.00
2018-07-14T07:13:01.212Z,20320.00
2018-07-14T07:14:01.218Z,20480.00
2018-07-14T07:15:01.227Z,21120.00
2018-07-14T07:16:01.240Z,21056.00
2018-07-14T07:17:01.247Z,21472.00
2018-07-14T07:18:01.254Z,22048.00
2018-07-14T07:19:01.290Z,22624.00
2018-07-14T07:20:01.284Z,23360.00
2018-07-14T07:21:01.297Z,24736.00
2018-07-14T07:22:01.317Z,24672.00
2018-07-14T07:23:01.324Z,25952.00
2018-07-14T07:24:01.371Z,26976.00
2018-07-14T07:25:01.339Z,27904.00
2018-07-14T07:26:01.347Z,29984.00
2018-07-14T07:27:01.370Z,32128.00
2018-07-14T07:28:01.392Z,35104.00
2018-07-14T07:29:01.398Z,39264.00
2018-07-14T07:30:01.404Z,45152.00
2018-07-14T07:31:01.452Z,53216.00
2018-07-14T07:32:01.459Z,61824.00
2018-07-14T07:33:01.444Z,72448.00
2018-07-14T07:34:01.497Z,76864.00
2018-07-14T07:35:01.470Z,76832.00
2018-07-14T07:36:01.474Z,81536.00
2018-07-14T07:37:01.528Z,88672.00
2018-07-14T07:38:01.497Z,16228.00
2018-07-14T07:39:01.512Z,104544.00
2018-07-14T07:40:01.527Z,104064.00
2018-07-14T07:41:01.580Z,98176.00
2018-07-14T07:42:01.572Z,91424.00
2018-07-14T07:43:01.562Z,86176.00
2018-07-14T07:44:01.607Z,86368.00
2018-07-14T07:45:01.615Z,73088.00
2018-07-14T07:46:01.612Z,43424.00
2018-07-14T07:47:01.656Z,77056.00
2018-07-14T07:48:01.632Z,72224.00
2018-07-14T07:49:01.689Z,68192.00
2018-07-14T07:50:01.665Z,65952.00
2018-07-14T07:51:01.677Z,61696.00
2018-07-14T07:52:01.714Z,60160.00
2018-07-14T07:53:01.693Z,58688.00
2018-07-14T07:54:01.773Z,49088.00
2018-07-14T07:55:01.745Z,23712.00
2018-07-14T07:56:01.732Z,54016.00
2018-07-14T07:57:01.792Z,55744.00
2018-07-14T07:58:01.782Z,34048.00
2018-07-14T07:59:01.855Z,52992.00
2018-07-14T08:00:01.789Z,39552.00
2018-07-14T08:01:01.820Z,35872.00
2018-07-14T08:02:01.816Z,56992.00
2018-07-14T08:03:01.868Z,56288.00
2018-07-14T08:04:01.841Z,52992.00
2018-07-14T08:05:04.567Z,50048.00
2018-07-14T08:06:01.872Z,45824.00
2018-07-14T08:07:01.912Z,50496.00
2018-07-14T08:08:01.929Z,51136.00
2018-07-14T08:09:01.904Z,50752.00
2018-07-14T08:10:01.979Z,50112.00
2018-07-14T08:11:01.950Z,51168.00
2018-07-14T08:12:01.951Z,49600.00
2018-07-14T08:13:02.000Z,49344.00
2018-07-14T08:14:02.026Z,49696.00
2018-07-14T08:15:02.025Z,49696.00
2018-07-14T08:16:02.040Z,48224.00
2018-07-14T08:17:02.053Z,48576.00
2018-07-14T08:18:02.050Z,47424.00
2018-07-14T08:19:03.003Z,46720.00
2018-07-14T08:20:02.074Z,46752.00
2018-07-14T08:21:02.103Z,46880.00
2018-07-14T08:22:02.102Z,49376.00
2018-07-14T08:23:02.203Z,50976.00
2018-07-14T08:24:02.153Z,51712.00
2018-07-14T08:25:02.146Z,52096.00
2018-07-14T08:26:02.175Z,51584.00
2018-07-14T08:27:02.198Z,50624.00
2018-07-14T08:28:02.202Z,49280.00
2018-07-14T08:29:03.017Z,50048.00
2018-07-14T08:30:02.242Z,48640.00
2018-07-14T08:31:02.262Z,48352.00
2018-07-14T08:32:02.254Z,53856.00
2018-07-14T08:33:02.280Z,56064.00
2018-07-14T08:34:02.284Z,55136.00
2018-07-14T08:35:02.342Z,54336.00
2018-07-14T08:36:02.327Z,53824.00
2018-07-14T08:37:02.343Z,54048.00
2018-07-14T08:38:02.419Z,35040.00
2018-07-14T08:39:02.378Z,68736.00
2018-07-14T08:40:02.406Z,65120.00
2018-07-14T08:41:02.434Z,47520.00
2018-07-14T08:42:02.469Z,68160.00
2018-07-14T08:43:02.440Z,73888.00
2018-07-14T08:44:02.477Z,71680.00
2018-07-14T08:45:02.488Z,67072.00
2018-07-14T08:46:02.506Z,59936.00
2018-07-14T08:47:02.491Z,55104.00
2018-07-14T08:48:02.573Z,51840.00
2018-07-14T08:49:02.588Z,49696.00
2018-07-14T08:50:02.554Z,50208.00
2018-07-14T08:51:02.687Z,49664.00
2018-07-14T08:52:02.587Z,49888.00
2018-07-14T08:53:02.608Z,50944.00
2018-07-14T08:54:02.615Z,51040.00
2018-07-14T08:55:02.669Z,50752.00
2018-07-14T08:56:02.647Z,50848.00
2018-07-14T08:57:02.697Z,47136.00
2018-07-14T08:58:02.733Z,50848.00
2018-07-14T08:59:02.723Z,50656.00
2018-07-14T09:00:02.766Z,51168.00
2018-07-14T09:01:02.750Z,50592.00
2018-07-14T09:02:02.768Z,50272.00
2018-07-14T09:03:02.779Z,50368.00
2018-07-14T09:04:02.827Z,51264.00
2018-07-14T09:05:02.846Z,50368.00
2018-07-14T09:06:02.826Z,43680.00
2018-07-14T09:07:02.851Z,48096.00
2018-07-14T09:08:02.893Z,50144.00
2018-07-14T09:09:02.937Z,50496.00
2018-07-14T09:10:02.900Z,49824.00
2018-07-14T09:11:02.948Z,47808.00
2018-07-14T09:12:02.946Z,48224.00
2018-07-14T09:13:02.979Z,48448.00
2018-07-14T09:14:03.017Z,47584.00
2018-07-14T09:15:02.994Z,47328.00
2018-07-14T09:16:03.011Z,46656.00
2018-07-14T09:17:03.062Z,46240.00
2018-07-14T09:18:03.041Z,46432.00
2018-07-14T09:19:03.085Z,46272.00
2018-07-14T09:20:03.107Z,46528.00
2018-07-14T09:21:04.044Z,46848.00
2018-07-14T09:22:03.139Z,47136.00
2018-07-14T09:23:03.137Z,48000.00
2018-07-14T09:24:03.157Z,50048.00
2018-07-14T09:25:03.263Z,52736.00
2018-07-14T09:26:03.206Z,52928.00
2018-07-14T09:27:03.220Z,56256.00
2018-07-14T09:28:03.313Z,58176.00
2018-07-14T09:29:03.258Z,58464.00
2018-07-14T09:30:03.286Z,63776.00
2018-07-14T09:31:03.305Z,66816.00
2018-07-14T09:32:03.361Z,61888.00
2018-07-14T09:33:03.347Z,59744.00
2018-07-14T09:34:03.368Z,60256.00
2018-07-14T09:35:03.417Z,60960.00
2018-07-14T09:36:03.426Z,61568.00
2018-07-14T09:37:03.417Z,70112.00
2018-07-14T09:38:03.543Z,72672.00
2018-07-14T09:39:03.462Z,75584.00
2018-07-14T09:40:03.528Z,79072.00
2018-07-14T09:41:03.506Z,86016.00
2018-07-14T09:42:03.538Z,97184.00
2018-07-14T09:43:03.558Z,93984.00
2018-07-14T09:44:03.609Z,86176.00
2018-07-14T09:45:03.569Z,90272.00
2018-07-14T09:46:03.634Z,88544.00
2018-07-14T09:47:03.655Z,87776.00
2018-07-14T09:48:03.645Z,96640.00
2018-07-14T09:50:35.846Z,81920.00
2018-07-14T09:51:36.965Z,57632.00
2018-07-14T09:52:35.863Z,81312.00
2018-07-14T09:53:35.895Z,99008.00
2018-07-14T09:54:35.877Z,102528.00
2018-07-14T09:55:35.915Z,103552.00
2018-07-14T09:56:35.926Z,104000.00
2018-07-14T09:57:35.931Z,102848.00
2018-07-14T09:58:35.969Z,99680.00
2018-07-14T09:59:35.982Z,97408.00
2018-07-14T10:00:36.030Z,98720.00
2018-07-14T10:01:36.021Z,95712.00
2018-07-14T10:02:36.036Z,94496.00
2018-07-14T10:03:36.138Z,97408.00
2018-07-14T10:04:36.072Z,94080.00
2018-07-14T10:05:36.119Z,96160.00
2018-07-14T10:06:36.188Z,96896.00
2018-07-14T10:07:36.177Z,93408.00
2018-07-14T10:08:36.164Z,92224.00
2018-07-14T10:09:36.180Z,89216.00
2018-07-14T10:10:36.255Z,91968.00
2018-07-14T10:11:36.237Z,94336.00
2018-07-14T10:12:36.282Z,92064.00
2018-07-14T10:13:36.776Z,90176.00
2018-07-14T10:14:36.303Z,92992.00
2018-07-14T10:15:36.368Z,89280.00
2018-07-14T10:18:08.566Z,71200.00
2018-07-14T10:19:08.499Z,75840.00
2018-07-14T10:20:08.559Z,72576.00
2018-07-14T10:21:08.552Z,57312.00
2018-07-14T10:22:08.595Z,35744.00
2018-07-14T10:23:08.607Z,64672.00
2018-07-14T10:24:08.609Z,74656.00
2018-07-14T10:25:08.691Z,75168.00
2018-07-14T10:26:08.661Z,76512.00
2018-07-14T10:27:08.687Z,56064.00
2018-07-14T10:28:08.687Z,79264.00
2018-07-14T10:29:08.797Z,75712.00
2018-07-14T10:30:08.727Z,78304.00
2018-07-14T10:31:08.779Z,76576.00
2018-07-14T10:32:08.776Z,76640.00
2018-07-14T10:33:08.822Z,82400.00
2018-07-14T10:34:09.462Z,78688.00
2018-07-14T10:35:08.826Z,79744.00
2018-07-14T10:36:08.911Z,85600.00
2018-07-14T10:37:08.883Z,88224.00
2018-07-14T10:38:08.896Z,89440.00
2018-07-14T10:39:09.037Z,89344.00
2018-07-14T10:40:08.979Z,93024.00
2018-07-14T10:41:08.952Z,89760.00
2018-07-14T10:42:09.028Z,82272.00
2018-07-14T10:43:08.984Z,82560.00
2018-07-14T10:44:09.036Z,86304.00
2018-07-14T10:45:09.052Z,86144.00
2018-07-14T10:46:09.055Z,54368.00
2018-07-14T10:47:09.061Z,19520.00
2018-07-14T10:48:09.078Z,13304.00
2018-07-14T10:49:09.106Z,12040.00
2018-07-14T10:50:09.140Z,12140.00
2018-07-14T10:51:09.173Z,12116.00
2018-07-14T10:52:09.201Z,11916.00
2018-07-14T10:53:09.169Z,11484.00
2018-07-14T10:54:09.313Z,11100.00
2018-07-14T10:55:09.219Z,10676.00
2018-07-14T10:56:09.237Z,10468.00
2018-07-14T10:57:09.267Z,10392.00
2018-07-14T10:58:09.285Z,10248.00
2018-07-14T10:59:09.299Z,10096.00
2018-07-14T11:00:09.283Z,10156.00
2018-07-14T11:01:09.307Z,10744.00
2018-07-14T11:02:09.316Z,11832.00
2018-07-14T11:03:09.379Z,12784.00
2018-07-14T11:04:09.349Z,12824.00
2018-07-14T11:05:09.402Z,12536.00
2018-07-14T11:06:09.443Z,13228.00
2018-07-14T11:07:09.394Z,11612.00
2018-07-14T11:08:09.408Z,11572.00
2018-07-14T11:09:09.451Z,11656.00
2018-07-14T11:10:09.425Z,10852.00
2018-07-14T11:11:09.462Z,11964.00
2018-07-14T11:12:09.479Z,11712.00
2018-07-14T11:13:09.528Z,11264.00
2018-07-14T11:14:09.513Z,11380.00
2018-07-14T11:15:09.486Z,10660.00
2018-07-14T11:16:09.506Z,10104.00
2018-07-14T11:17:09.545Z,9612.00
2018-07-14T11:18:09.573Z,9400.00
2018-07-14T11:19:10.480Z,9428.00
2018-07-14T11:20:09.552Z,9764.00
2018-07-14T11:21:09.587Z,9880.00
2018-07-14T11:22:09.594Z,10100.00
2018-07-14T11:23:09.605Z,10140.00
2018-07-14T11:24:09.616Z,10072.00
2018-07-14T11:25:09.679Z,9592.00
2018-07-14T11:26:09.622Z,9272.00
2018-07-14T11:27:09.637Z,8948.00
2018-07-14T11:28:09.638Z,8772.00
2018-07-14T11:29:09.760Z,8716.00
2018-07-14T11:30:09.668Z,8908.00
2018-07-14T11:31:09.667Z,9000.00
2018-07-14T11:32:09.683Z,8844.00
2018-07-14T11:33:09.687Z,8696.00
2018-07-14T11:34:09.702Z,8540.00
2018-07-14T11:35:09.729Z,8780.00
2018-07-14T11:36:09.729Z,9924.00
2018-07-14T11:37:09.728Z,9904.00
2018-07-14T11:38:09.781Z,9728.00
2018-07-14T11:39:10.503Z,9208.00
2018-07-14T11:40:09.760Z,9128.00
2018-07-14T11:41:09.766Z,10320.00
2018-07-14T11:42:09.832Z,10432.00
2018-07-14T11:43:09.786Z,10700.00
2018-07-14T11:44:09.837Z,10572.00
2018-07-14T11:45:09.806Z,10336.00
2018-07-14T11:46:09.823Z,9812.00
2018-07-14T11:47:09.868Z,9344.00
2018-07-14T11:48:09.830Z,8612.00
2018-07-14T11:49:10.500Z,7808.00
2018-07-14T11:50:09.852Z,8176.00
2018-07-14T11:51:09.870Z,8588.00
2018-07-14T11:52:09.884Z,8468.00
2018-07-14T11:53:09.883Z,7896.00
2018-07-14T11:54:09.959Z,8288.00
2018-07-14T11:55:09.915Z,9032.00
2018-07-14T11:56:09.932Z,9288.00
2018-07-14T11:57:09.941Z,8848.00
2018-07-14T11:58:09.926Z,7804.00
2018-07-14T11:59:09.945Z,6776.00
2018-07-14T12:00:09.955Z,6200.00
2018-07-14T12:01:09.951Z,6600.00
2018-07-14T12:02:09.966Z,7696.00
2018-07-14T12:03:09.983Z,6920.00
2018-07-14T12:04:10.009Z,7172.00
2018-07-14T12:05:09.996Z,7392.00
2018-07-14T12:06:10.016Z,9024.00
2018-07-14T12:07:10.057Z,7756.00
2018-07-14T12:08:10.018Z,7168.00
2018-07-14T12:09:10.030Z,7512.00
2018-07-14T12:10:10.052Z,7800.00
2018-07-14T12:11:10.043Z,7944.00
2018-07-14T12:12:10.052Z,8708.00
2018-07-14T12:13:10.061Z,8088.00
2018-07-14T12:14:10.194Z,6224.00
2018-07-14T12:15:10.086Z,6144.00
2018-07-14T12:16:10.107Z,7064.00
2018-07-14T12:17:10.105Z,7060.00
2018-07-14T12:18:10.123Z,7240.00
2018-07-14T12:19:10.184Z,7916.00
2018-07-14T12:20:10.154Z,7232.00
2018-07-14T12:21:10.137Z,6680.00